Time;durP1;ratioP1;P1;durP2;ratioP2;P2;SDS_P1;SDS_P2;PMS_P1;PMS_P2;Temp;Humidity;BMP_temperature;BMP_pressure;BME280_temperature;BME280_humidity;BME280_pressure;Samples;Min_cycle;Max_cycle;Signal;HPM_P1;HPM_P2
2022/03/31 06:03:49;;;;;;;;;26.00;22.25;;;;;16.77;54.28;99642.13;5044993;27;45761;-75
2022/03/31 06:06:15;;;;;;;;;22.50;20.75;;;;;16.93;54.21;99646.81;5036687;27;45576;-75
2022/03/31 06:08:40;;;;;;;;;21.75;21.00;;;;;17.14;53.90;99640.34;5069636;27;45739;-76
2022/03/31 06:11:05;;;;;;;;;22.25;18.75;;;;;17.40;53.73;99639.59;5050714;27;45502;-77
2022/03/31 06:13:31;;;;;;;;;31.00;21.50;;;;;17.63;53.22;99640.75;5044246;27;46034;-76
2022/03/31 06:15:56;;;;;;;;;28.25;25.00;;;;;17.90;52.75;99646.16;5040832;27;45579;-76
2022/03/31 06:18:23;;;;;;;;;27.25;27.25;;;;;18.15;52.45;99646.34;5040472;27;45821;-76
2022/03/31 06:20:48;;;;;;;;;33.25;26.75;;;;;18.39;52.15;99647.47;5041372;28;45504;-75
2022/03/31 06:23:13;;;;;;;;;27.25;23.75;;;;;18.61;51.44;99646.06;5040755;28;45331;-77
2022/03/31 06:25:42;;;;;;;;;30.25;26.50;;;;;18.81;51.24;99649.28;5040620;27;45440;-77
2022/03/31 06:28:08;;;;;;;;;29.00;22.75;;;;;19.02;51.15;99658.78;5032232;27;45806;-76
2022/03/31 06:30:34;;;;;;;;;25.25;23.50;;;;;19.20;50.73;99657.81;5052094;27;45791;-75
2022/03/31 06:32:59;;;;;;;;;26.25;21.25;;;;;19.38;50.42;99662.22;5039119;27;45493;-77
2022/03/31 06:35:25;;;;;;;;;31.50;24.25;;;;;19.52;49.74;99650.78;5043287;28;45512;-76
2022/03/31 06:37:50;;;;;;;;;24.50;23.25;;;;;19.67;49.85;99659.03;5036719;28;45760;-76
2022/03/31 06:40:17;;;;;;;;;27.25;21.75;;;;;19.78;49.55;99657.81;5033736;28;45725;-76
2022/03/31 06:42:44;;;;;;;;;22.25;19.50;;;;;19.92;49.44;99655.47;5046950;27;45484;-76
2022/03/31 06:45:12;;;;;;;;;25.00;24.25;;;;;20.03;48.50;99659.69;5041092;27;45944;-75
2022/03/31 06:47:39;;;;;;;;;27.50;21.25;;;;;20.13;48.13;99669.25;5029229;27;45640;-76
2022/03/31 06:50:05;;;;;;;;;29.00;23.00;;;;;20.23;48.73;99669.06;5049507;27;45705;-72
2022/03/31 06:52:30;;;;;;;;;29.75;24.00;;;;;20.35;48.44;99666.84;5040399;27;46297;-72
2022/03/31 06:54:56;;;;;;;;;25.75;22.50;;;;;20.41;47.62;99660.75;5034092;28;45572;-74
2022/03/31 06:57:21;;;;;;;;;27.25;23.00;;;;;20.49;47.52;99665.28;5015406;27;45537;-75
2022/03/31 06:59:46;;;;;;;;;25.75;22.75;;;;;20.59;47.50;99658.81;5036923;28;45662;-74
2022/03/31 07:02:12;;;;;;;;;28.75;24.75;;;;;20.65;47.66;99655.44;5033332;28;46089;-74
2022/03/31 07:04:37;;;;;;;;;24.75;24.25;;;;;20.74;47.19;99656.22;5041084;27;45399;-74
2022/03/31 07:07:02;;;;;;;;;26.50;22.75;;;;;20.80;46.89;99658.22;5041787;27;45357;-73
2022/03/31 07:09:28;;;;;;;;;24.75;23.75;;;;;20.83;46.71;99657.88;5040459;27;45519;-73
2022/03/31 07:11:53;;;;;;;;;29.75;25.50;;;;;20.90;47.03;99658.91;5011127;28;58238;-73
2022/03/31 07:14:19;;;;;;;;;25.75;22.50;;;;;20.94;46.56;99662.06;5020151;28;45413;-73
2022/03/31 07:16:45;;;;;;;;;27.50;24.25;;;;;20.99;46.49;99650.72;5017995;28;45410;-73
2022/03/31 07:19:11;;;;;;;;;24.00;23.25;;;;;21.03;46.40;99668.25;5023030;27;45688;-73
2022/03/31 07:21:36;;;;;;;;;24.75;24.00;;;;;21.06;46.60;99662.50;5016355;27;46198;-76
2022/03/31 07:24:02;;;;;;;;;27.25;24.50;;;;;21.12;46.44;99669.03;5036076;27;52889;-74
2022/03/31 07:26:28;;;;;;;;;30.00;25.00;;;;;21.15;46.31;99666.84;5028493;27;45433;-73
2022/03/31 07:28:53;;;;;;;;;24.50;23.50;;;;;21.21;45.95;99661.72;5019740;28;45582;-73
2022/03/31 07:31:19;;;;;;;;;23.00;22.50;;;;;21.24;45.67;99661.34;5022090;27;53099;-72
2022/03/31 07:33:45;;;;;;;;;26.50;25.00;;;;;21.28;46.09;99666.22;5008913;27;45505;-72
2022/03/31 07:36:12;;;;;;;;;30.00;25.00;;;;;21.31;45.50;99660.47;5027590;27;45784;-72
2022/03/31 07:38:38;;;;;;;;;24.50;21.75;;;;;21.34;45.66;99656.59;5026600;27;45742;-72
2022/03/31 07:41:03;;;;;;;;;27.50;23.00;;;;;21.37;45.57;99660.78;5021928;27;45322;-74
2022/03/31 07:43:29;;;;;;;;;28.75;25.50;;;;;21.38;45.22;99665.97;5019578;27;45435;-72
2022/03/31 07:45:55;;;;;;;;;26.75;21.75;;;;;21.39;45.56;99670.38;5044139;27;45887;-73
2022/03/31 07:48:20;;;;;;;;;28.50;25.50;;;;;21.39;45.56;99670.38;5030392;27;45426;-74
2022/03/31 07:50:45;;;;;;;;;24.25;24.00;;;;;21.41;45.01;99673.72;5019593;27;45761;-75
2022/03/31 07:53:11;;;;;;;;;23.75;23.00;;;;;21.44;45.14;99670.66;5033104;27;45610;-72
2022/03/31 07:55:37;;;;;;;;;22.25;21.00;;;;;21.45;45.11;99676.91;5024173;27;45565;-71
2022/03/31 07:58:03;;;;;;;;;24.25;24.00;;;;;21.47;45.13;99677.56;5032614;27;45394;-73
2022/03/31 08:00:29;;;;;;;;;21.75;20.00;;;;;21.49;45.23;99670.13;5023135;27;46483;-74
2022/03/31 08:02:56;;;;;;;;;25.25;24.00;;;;;21.52;44.94;99679.72;5024780;27;45776;-74
2022/03/31 08:05:25;;;;;;;;;27.00;25.25;;;;;21.53;44.71;99671.44;5023004;27;45623;-72
2022/03/31 08:07:51;;;;;;;;;21.25;21.25;;;;;21.58;45.20;99665.50;5015217;28;45540;-72
2022/03/31 08:10:18;;;;;;;;;24.00;23.00;;;;;21.59;44.98;99665.31;5018432;27;46118;-77
2022/03/31 08:12:45;;;;;;;;;24.50;23.25;;;;;21.62;44.39;99666.81;5023606;27;45488;-71
2022/03/31 08:15:12;;;;;;;;;24.00;22.75;;;;;21.64;44.56;99672.88;5027374;27;45535;-71
2022/03/31 08:17:38;;;;;;;;;22.75;21.00;;;;;21.70;45.04;99674.84;5015788;28;45425;-71
2022/03/31 08:20:06;;;;;;;;;22.00;21.25;;;;;21.74;44.99;99674.53;5024886;27;47387;-71
2022/03/31 08:22:31;;;;;;;;;25.25;23.25;;;;;21.81;44.76;99672.75;5018518;27;45574;-71
2022/03/31 08:24:56;;;;;;;;;22.00;21.00;;;;;21.85;44.36;99682.16;5019325;27;45575;-71
2022/03/31 08:27:22;;;;;;;;;23.50;22.75;;;;;21.88;44.55;99679.13;5020345;27;45601;-72
2022/03/31 08:29:47;;;;;;;;;23.75;21.25;;;;;21.92;45.08;99677.72;5017834;27;46079;-71
2022/03/31 08:32:15;;;;;;;;;25.50;25.00;;;;;21.97;44.98;99683.41;5030140;27;45654;-71
2022/03/31 08:34:41;;;;;;;;;24.50;23.25;;;;;22.02;44.59;99679.31;5023383;27;45385;-71
2022/03/31 08:37:07;;;;;;;;;24.75;23.75;;;;;22.07;44.51;99690.41;5019349;27;45496;-72
2022/03/31 08:39:32;;;;;;;;;23.75;19.75;;;;;22.11;44.28;99700.66;5015779;27;45536;-72
2022/03/31 08:41:58;;;;;;;;;19.25;19.25;;;;;22.14;44.36;99698.63;5012065;27;45442;-72
2022/03/31 08:44:23;;;;;;;;;26.75;22.50;;;;;22.16;44.25;99694.72;5028115;27;45394;-72
2022/03/31 08:46:50;;;;;;;;;19.25;18.25;;;;;22.19;44.28;99693.50;5016651;28;45253;-72
2022/03/31 08:49:16;;;;;;;;;26.00;21.25;;;;;22.22;44.69;99703.94;5016766;28;45410;-72
2022/03/31 08:51:45;;;;;;;;;25.25;22.75;;;;;22.23;44.28;99713.72;5014608;27;45471;-71
2022/03/31 08:54:11;;;;;;;;;21.67;20.67;;;;;22.24;44.42;99724.34;5016433;27;45870;-71
2022/03/31 08:56:37;;;;;;;;;21.75;19.75;;;;;22.25;44.92;99726.00;5069834;27;46791;-71
2022/03/31 08:59:03;;;;;;;;;21.75;20.00;;;;;22.29;44.40;99736.47;5029022;28;45423;-72
2022/03/31 09:01:30;;;;;;;;;22.25;22.25;;;;;22.29;44.69;99737.31;5020791;28;45516;-72
2022/03/31 09:03:55;;;;;;;;;24.75;21.75;;;;;22.30;44.67;99735.44;5030734;27;45514;-71
2022/03/31 09:06:22;;;;;;;;;23.00;21.00;;;;;22.34;44.67;99743.00;5015165;27;45603;-71
2022/03/31 09:08:59;;;;;;;;;20.33;19.00;;;;;22.35;44.38;99757.34;5015331;27;46075;-70
2022/03/31 09:11:35;;;;;;;;;17.67;17.67;;;;;22.35;44.75;99763.59;5028465;27;45418;-71
2022/03/31 09:14:03;;;;;;;;;19.67;19.67;;;;;22.36;44.57;99765.28;5036372;27;45507;-71
2022/03/31 09:16:38;;;;;;;;;20.33;20.33;;;;;22.38;44.45;99778.63;5016702;27;45669;-72
2022/03/31 09:19:03;;;;;;;;;21.75;20.00;;;;;22.40;45.38;99787.38;5006671;27;47372;-71
2022/03/31 09:21:31;;;;;;;;;21.33;18.00;;;;;22.41;44.75;99791.78;5021013;27;45507;-71
2022/03/31 09:23:57;;;;;;;;;17.25;17.00;;;;;22.43;45.00;99791.59;5025987;27;45862;-72
2022/03/31 09:26:23;;;;;;;;;20.00;17.50;;;;;22.43;44.42;99802.41;5024182;28;45536;-71
2022/03/31 09:28:50;;;;;;;;;22.25;17.50;;;;;22.44;45.06;99799.50;5017340;28;46069;-70
2022/03/31 09:31:22;;;;;;;;;20.00;17.33;;;;;22.46;44.53;99797.47;5014897;27;45371;-72
2022/03/31 09:33:54;;;;;;;;;22.00;17.00;;;;;22.48;44.90;99802.69;5014578;27;45411;-73
2022/03/31 09:36:24;;;;;;;;;22.33;19.00;;;;;22.50;44.89;99809.59;5020636;27;45499;-72
2022/03/31 09:39:00;;;;;;;;;17.67;16.67;;;;;22.51;44.83;99810.41;5027287;27;46518;-71
2022/03/31 09:41:27;;;;;;;;;16.67;15.67;;;;;22.51;44.67;99824.78;5023186;27;45433;-71
2022/03/31 09:43:55;;;;;;;;;17.00;17.00;;;;;22.54;44.43;99825.47;5045434;27;45379;-71
2022/03/31 09:46:38;;;;;;;;;15.67;14.33;;;;;22.53;44.40;99823.75;5029684;27;45582;-71
2022/03/31 09:49:22;;;;;;;;;14.67;14.67;;;;;22.50;44.35;99822.28;5026167;27;45452;-72
2022/03/31 09:51:50;;;;;;;;;18.00;16.67;;;;;22.47;44.17;99823.47;5018960;27;48128;-72
2022/03/31 09:54:17;;;;;;;;;16.33;13.33;;;;;22.46;44.70;99829.91;5027272;27;47342;-71
2022/03/31 09:56:43;;;;;;;;;14.67;14.67;;;;;22.46;44.23;99832.63;5017686;27;45336;-71
2022/03/31 09:59:12;;;;;;;;;15.67;12.33;;;;;22.45;44.07;99830.94;5029763;27;46351;-71
2022/03/31 10:01:39;;;;;;;;;15.00;15.00;;;;;22.45;44.26;99836.34;5036686;27;45465;-71
2022/03/31 10:04:09;;;;;;;;;20.33;13.00;;;;;22.43;44.28;99834.84;5007752;27;45467;-71
2022/03/31 10:06:39;;;;;;;;;13.00;11.67;;;;;22.45;44.12;99840.91;5015978;27;45633;-71
2022/03/31 10:09:06;;;;;;;;;12.67;12.67;;;;;22.46;44.03;99848.00;5029619;27;45445;-71
2022/03/31 10:11:37;;;;;;;;;15.67;14.00;;;;;22.45;44.32;99851.72;5013002;27;45290;-72
2022/03/31 10:14:17;;;;;;;;;13.33;12.33;;;;;22.46;44.40;99851.56;5016929;28;45822;-71
2022/03/31 10:16:47;;;;;;;;;12.33;12.33;;;;;22.47;44.15;99855.94;5016441;27;45370;-72
2022/03/31 10:19:26;;;;;;;;;15.33;13.00;;;;;22.49;44.19;99861.16;5022985;27;45550;-72
2022/03/31 10:25:02;;;;;;;;;13.67;11.33;;;;;22.49;44.06;99861.97;5021277;27;45505;-73
2022/03/31 10:27:30;;;;;;;;;11.33;11.33;;;;;22.51;44.51;99861.81;5025542;27;45483;-73
2022/03/31 10:30:11;;;;;;;;;8.33;8.33;;;;;22.51;44.66;99864.50;5016607;27;46295;-73
2022/03/31 10:32:37;;;;;;;;;11.00;10.33;;;;;22.51;44.51;99859.94;5022579;27;45465;-73
2022/03/31 10:35:03;;;;;;;;;13.00;11.67;;;;;22.54;44.04;99860.63;5016937;28;45397;-73
2022/03/31 10:37:38;;;;;;;;;11.00;11.00;;;;;22.54;44.57;99872.28;5029603;27;45472;-73
2022/03/31 10:40:07;;;;;;;;;11.00;10.33;;;;;22.54;44.61;99858.78;5028515;27;46419;-73
2022/03/31 10:42:33;;;;;;;;;15.00;12.00;;;;;22.55;44.08;99854.19;5024964;27;45617;-72
2022/03/31 10:45:16;;;;;;;;;11.33;9.33;;;;;22.57;44.15;99849.44;5025835;27;45414;-73
2022/03/31 10:47:43;;;;;;;;;12.00;11.00;;;;;22.56;44.48;99848.59;5027502;27;45636;-71
2022/03/31 10:50:22;;;;;;;;;11.67;11.67;;;;;22.54;44.59;99847.97;5023133;28;45520;-71
2022/03/31 10:53:00;;;;;;;;;11.67;9.67;;;;;22.55;44.13;99849.63;5019223;28;45546;-73
2022/03/31 10:55:41;;;;;;;;;11.33;10.00;;;;;22.56;44.19;99848.59;5025135;27;45567;-72
2022/03/31 10:58:18;;;;;;;;;11.67;10.00;;;;;22.58;44.45;99845.72;5018432;27;45408;-73
2022/03/31 11:00:43;;;;;;;;;12.00;9.00;;;;;22.57;43.79;99850.31;5019475;27;46248;-72
2022/03/31 11:03:09;;;;;;;;;9.33;9.33;;;;;22.58;43.96;99835.75;5028352;28;45552;-72
2022/03/31 11:05:38;;;;;;;;;10.00;9.33;;;;;22.58;43.78;99848.41;5018843;28;45728;-72
2022/03/31 11:08:05;;;;;;;;;10.00;10.00;;;;;22.58;43.58;99845.72;5033552;27;45523;-71
2022/03/31 11:10:41;;;;;;;;;12.00;10.00;;;;;22.60;44.14;99851.81;5024585;28;46207;-71
2022/03/31 11:13:07;;;;;;;;;9.33;8.67;;;;;22.61;43.45;99848.06;5022752;28;45558;-72
2022/03/31 11:15:33;;;;;;;;;10.67;10.33;;;;;22.62;43.90;99853.28;5018994;27;45854;-71
2022/03/31 11:18:01;;;;;;;;;10.33;10.00;;;;;22.65;43.47;99854.78;5029343;27;45524;-71
2022/03/31 11:20:27;;;;;;;;;9.00;8.00;;;;;22.69;43.78;99849.84;5029718;27;46159;-71
2022/03/31 11:23:03;;;;;;;;;5.67;5.67;;;;;22.73;43.16;99862.81;5020871;28;45498;-71
2022/03/31 11:25:29;;;;;;;;;7.33;7.33;;;;;22.77;43.36;99864.13;5027191;27;45392;-71
2022/03/31 11:27:58;;;;;;;;;8.33;8.00;;;;;22.81;43.11;99855.63;5018702;27;45518;-71
2022/03/31 11:30:25;;;;;;;;;9.00;7.33;;;;;22.84;42.99;99858.00;5020634;27;48771;-71
2022/03/31 11:32:52;;;;;;;;;9.00;9.00;;;;;22.87;43.07;99865.72;5079565;27;45558;-71
2022/03/31 11:35:21;;;;;;;;;8.00;7.00;;;;;22.90;42.81;99854.53;5021196;28;45572;-71
2022/03/31 11:37:50;;;;;;;;;7.00;7.00;;;;;22.93;42.93;99851.44;5026453;27;45697;-71
2022/03/31 11:40:19;;;;;;;;;7.00;7.00;;;;;22.95;42.73;99853.97;5035558;27;45770;-71
2022/03/31 11:42:46;;;;;;;;;10.67;8.00;;;;;22.98;42.98;99851.75;5066134;27;45495;-71
2022/03/31 11:45:43;;;;;;;;;6.00;6.00;;;;;23.02;42.55;99858.44;5021975;27;45512;-72
2022/03/31 11:48:16;;;;;;;;;6.00;6.00;;;;;23.05;42.83;99853.69;5028569;28;45365;-73
2022/03/31 11:50:59;;;;;;;;;9.33;5.67;;;;;23.09;42.22;99855.81;5025727;27;45508;-73
2022/03/31 11:53:29;;;;;;;;;7.00;5.67;;;;;23.15;42.50;99860.50;5025818;27;45523;-72
2022/03/31 11:56:01;;;;;;;;;6.00;6.00;;;;;23.21;42.58;99860.78;5019607;28;45491;-71
2022/03/31 11:58:32;;;;;;;;;7.00;6.00;;;;;23.25;42.44;99864.78;5018045;27;45509;-71
2022/03/31 12:00:58;;;;;;;;;7.33;5.67;;;;;23.30;42.46;99863.19;5021977;27;45404;-74
2022/03/31 12:03:33;;;;;;;;;7.33;5.33;;;;;23.35;42.37;99864.53;5026414;27;45500;-75
2022/03/31 12:06:00;;;;;;;;;4.33;4.33;;;;;23.39;42.13;99860.41;5062940;27;46549;-72
2022/03/31 12:08:27;;;;;;;;;6.00;6.00;;;;;23.43;42.25;99875.25;5015930;27;45706;-71
2022/03/31 12:10:54;;;;;;;;;6.00;6.00;;;;;23.46;42.39;99871.34;5018464;28;47109;-73
2022/03/31 12:13:23;;;;;;;;;6.67;6.67;;;;;23.49;42.20;99870.94;5017879;27;45310;-72
2022/03/31 12:15:49;;;;;;;;;9.00;6.00;;;;;23.52;42.44;99873.28;5029240;27;45479;-72
2022/03/31 12:18:18;;;;;;;;;8.00;6.67;;;;;23.54;42.69;99882.88;5019676;27;45527;-72
2022/03/31 12:20:46;;;;;;;;;6.00;6.00;;;;;23.57;42.39;99884.38;5022658;27;48687;-71
2022/03/31 12:23:21;;;;;;;;;7.00;7.00;;;;;23.58;42.27;99875.22;5017075;28;45603;-72
2022/03/31 12:25:47;;;;;;;;;7.33;7.00;;;;;23.60;42.66;99881.31;5019835;28;45373;-71
2022/03/31 12:28:13;;;;;;;;;7.33;7.00;;;;;23.59;42.58;99878.78;5026217;27;45476;-70
2022/03/31 12:30:40;;;;;;;;;7.00;7.00;;;;;23.59;42.66;99874.22;5025973;27;46004;-72
2022/03/31 12:33:23;;;;;;;;;9.00;7.33;;;;;23.63;42.27;99877.38;5022918;27;45455;-72
2022/03/31 12:36:03;;;;;;;;;7.33;6.67;;;;;23.63;42.44;99882.78;5012428;27;45460;-72
2022/03/31 12:38:39;;;;;;;;;12.00;9.00;;;;;23.61;42.86;99877.56;5015481;27;45272;-71
2022/03/31 12:41:20;;;;;;;;;8.33;7.33;;;;;23.62;43.09;99881.94;5019330;28;46171;-70
2022/03/31 12:43:59;;;;;;;;;10.33;9.00;;;;;23.60;42.64;99875.88;5025420;27;45458;-71
2022/03/31 12:46:30;;;;;;;;;13.33;10.33;;;;;23.60;43.05;99875.03;5016965;27;45406;-70
2022/03/31 12:49:10;;;;;;;;;9.00;8.67;;;;;23.62;42.78;99881.13;5021042;27;45376;-72
2022/03/31 12:51:50;;;;;;;;;10.67;10.67;;;;;23.62;42.89;99878.41;5034979;27;46381;-71
2022/03/31 12:54:29;;;;;;;;;12.00;11.00;;;;;23.63;43.53;99885.50;5027074;27;45472;-72
2022/03/31 12:56:58;;;;;;;;;10.67;9.33;;;;;23.63;43.48;99878.19;5012438;27;45536;-71
2022/03/31 12:59:30;;;;;;;;;9.00;9.00;;;;;23.63;43.37;99875.47;5018003;28;45479;-71
2022/03/31 13:02:01;;;;;;;;;11.67;10.67;;;;;23.64;43.35;99882.59;5011975;27;47405;-72
2022/03/31 13:04:27;;;;;;;;;16.00;11.00;;;;;23.65;43.50;99880.72;5026960;27;45468;-71
2022/03/31 13:06:53;;;;;;;;;10.67;9.00;;;;;23.65;43.26;99883.41;5023899;27;45443;-71
2022/03/31 13:09:19;;;;;;;;;9.33;7.67;;;;;23.64;43.49;99887.16;5014148;27;45449;-72
2022/03/31 13:11:47;;;;;;;;;14.00;14.00;;;;;23.65;43.54;99900.53;5011441;27;45418;-71
2022/03/31 13:14:12;;;;;;;;;13.00;12.33;;;;;23.64;43.50;99885.31;5021927;28;45737;-72
2022/03/31 13:16:38;;;;;;;;;11.33;10.33;;;;;23.68;43.45;99885.75;5025741;27;45461;-72
2022/03/31 13:19:04;;;;;;;;;10.00;7.00;;;;;23.67;43.72;99879.50;5021446;27;45920;-72
2022/03/31 13:21:30;;;;;;;;;13.67;12.00;;;;;23.66;43.63;99885.09;5019941;27;46012;-71
2022/03/31 13:23:55;;;;;;;;;31.25;28.25;;;;;23.68;43.55;99878.50;5032246;27;45535;-73
2022/03/31 13:26:21;;;;;;;;;32.75;27.00;;;;;23.67;43.55;99873.25;5038338;27;45875;-71
2022/03/31 13:28:46;;;;;;;;;16.00;16.00;;;;;23.66;41.66;99860.72;5028373;27;45679;-69
2022/03/31 13:31:11;;;;;;;;;25.25;22.25;;;;;23.63;42.07;99869.25;5045780;27;45418;-70
2022/03/31 13:33:37;;;;;;;;;19.75;18.75;;;;;23.59;41.92;99865.22;5044611;27;45475;-70
2022/03/31 13:36:03;;;;;;;;;24.25;23.75;;;;;23.52;41.88;99859.72;5063996;27;45762;-70
2022/03/31 13:38:31;;;;;;;;;21.00;21.00;;;;;23.50;41.62;99865.34;5023207;28;45552;-71
2022/03/31 13:40:58;;;;;;;;;23.75;22.50;;;;;23.47;41.78;99862.16;5049230;27;46546;-69
2022/03/31 13:43:24;;;;;;;;;13.00;13.00;;;;;23.45;41.54;99862.34;5027055;27;45483;-69
2022/03/31 13:45:51;;;;;;;;;17.00;15.00;;;;;23.44;41.11;99855.28;5023828;28;45534;-72
2022/03/31 13:48:16;;;;;;;;;15.67;15.00;;;;;23.43;41.31;99859.84;5018267;28;45880;-70
2022/03/31 13:50:42;;;;;;;;;19.00;15.67;;;;;23.45;41.35;99853.41;5029155;27;45507;-69
2022/03/31 13:55:51;;;;;;;;;13.33;12.00;;;;;23.45;40.89;99842.56;5017778;28;45489;-71
2022/03/31 14:01:12;;;;;;;;;17.67;17.00;;;;;23.47;40.88;99841.38;5018408;27;45771;-71
2022/03/31 14:03:42;;;;;;;;;15.33;13.67;;;;;23.48;40.67;99837.63;5014060;27;45418;-70
2022/03/31 14:06:09;;;;;;;;;12.33;10.67;;;;;23.49;41.08;99830.31;5025545;27;45836;-70
2022/03/31 14:08:35;;;;;;;;;14.00;13.33;;;;;23.50;40.47;99829.31;5021687;27;45306;-71
2022/03/31 14:11:05;;;;;;;;;11.67;11.67;;;;;23.52;40.57;99824.53;5020283;28;46074;-70
2022/03/31 14:13:34;;;;;;;;;12.33;9.00;;;;;23.55;40.88;99835.81;5021728;27;45730;-70
2022/03/31 14:16:02;;;;;;;;;14.67;11.33;;;;;23.59;40.99;99824.59;5016987;27;45737;-70
2022/03/31 14:18:32;;;;;;;;;8.67;8.67;;;;;23.64;41.15;99831.13;5012397;27;46094;-70
2022/03/31 14:20:58;;;;;;;;;12.67;12.67;;;;;23.69;41.09;99817.00;5010589;27;46450;-72
2022/03/31 14:23:24;;;;;;;;;12.00;12.00;;;;;23.75;41.40;99823.53;5014289;27;45508;-71
2022/03/31 14:25:50;;;;;;;;;12.33;10.00;;;;;23.79;41.00;99820.22;5018995;28;45585;-70
2022/03/31 14:28:16;;;;;;;;;10.33;9.67;;;;;23.85;41.28;99815.91;5015726;27;50690;-72
2022/03/31 14:30:42;;;;;;;;;12.67;11.00;;;;;23.87;41.43;99821.16;5013451;27;46890;-71
2022/03/31 14:33:08;;;;;;;;;13.33;10.67;;;;;23.91;41.18;99819.75;5013204;27;45507;-69
2022/03/31 14:35:33;;;;;;;;;10.00;10.00;;;;;23.93;41.23;99823.06;5014776;27;45792;-70
2022/03/31 14:38:01;;;;;;;;;8.33;7.33;;;;;23.93;40.92;99820.38;5014596;28;45363;-70
2022/03/31 14:40:27;;;;;;;;;10.33;10.00;;;;;23.94;41.29;99830.16;5015884;27;46087;-70
2022/03/31 14:42:53;;;;;;;;;8.00;8.00;;;;;23.94;41.42;99836.44;5019434;27;45409;-72
2022/03/31 14:45:20;;;;;;;;;11.00;9.33;;;;;23.94;41.45;99830.16;5022265;27;45562;-72
2022/03/31 14:47:46;;;;;;;;;12.00;10.00;;;;;23.94;41.30;99828.31;5019166;27;45583;-71
2022/03/31 14:50:11;;;;;;;;;8.67;8.00;;;;;23.95;41.29;99837.28;5015981;28;45846;-70
2022/03/31 14:52:37;;;;;;;;;14.00;9.67;;;;;23.94;41.41;99836.44;5027985;28;45436;-71
2022/03/31 14:55:03;;;;;;;;;9.33;9.33;;;;;23.94;41.29;99835.59;5018686;27;46011;-70
2022/03/31 14:57:29;;;;;;;;;10.33;8.33;;;;;23.93;41.09;99832.06;5023437;27;45722;-70
2022/03/31 14:59:54;;;;;;;;;12.00;10.00;;;;;23.92;41.16;99830.34;5030548;27;47762;-71
2022/03/31 15:02:19;;;;;;;;;10.33;9.67;;;;;23.91;41.15;99825.97;5022801;28;45441;-71
2022/03/31 15:04:44;;;;;;;;;11.00;10.67;;;;;23.92;41.31;99826.81;5017303;27;45452;-71
2022/03/31 15:07:10;;;;;;;;;10.00;7.00;;;;;23.92;41.53;99832.25;5018366;27;45492;-71
2022/03/31 15:15:04;;;;;;;;;10.67;7.00;;;;;23.90;41.59;99842.41;5020229;27;45530;-71
2022/03/31 15:17:30;;;;;;;;;8.00;7.67;;;;;23.91;41.88;99846.84;5019023;27;45512;-71
2022/03/31 15:19:55;;;;;;;;;8.67;7.33;;;;;23.91;41.47;99844.94;5016004;28;47517;-71
2022/03/31 15:22:21;;;;;;;;;10.00;8.00;;;;;23.93;41.80;99842.03;5020504;27;45643;-72
2022/03/31 15:24:46;;;;;;;;;10.67;9.00;;;;;23.93;41.72;99845.59;5015671;27;45523;-72
2022/03/31 15:27:12;;;;;;;;;6.00;6.00;;;;;23.95;41.93;99848.94;4998585;27;45428;-71
2022/03/31 15:29:38;;;;;;;;;6.33;5.67;;;;;23.98;41.86;99844.19;5014007;27;46116;-71
2022/03/31 15:32:04;;;;;;;;;7.00;6.00;;;;;24.00;42.22;99839.41;5018109;28;45634;-71
2022/03/31 15:34:30;;;;;;;;;6.00;6.00;;;;;24.04;42.12;99843.41;5008104;28;45588;-72
2022/03/31 15:36:56;;;;;;;;;6.00;5.67;;;;;24.07;41.65;99846.56;5013244;27;45675;-73
2022/03/31 15:39:24;;;;;;;;;8.00;5.00;;;;;24.06;41.64;99847.59;5003534;27;46021;-71
2022/03/31 15:41:52;;;;;;;;;8.33;6.33;;;;;24.06;41.20;99844.03;5015276;27;45691;-71
2022/03/31 15:44:18;;;;;;;;;4.33;4.33;;;;;24.04;41.44;99844.22;5019104;28;45519;-71
2022/03/31 15:46:44;;;;;;;;;5.67;5.00;;;;;24.03;41.59;99842.56;5016468;27;46415;-71
2022/03/31 15:49:10;;;;;;;;;8.00;6.67;;;;;24.03;41.46;99839.03;5023078;27;45968;-71
2022/03/31 15:51:36;;;;;;;;;7.33;6.33;;;;;24.01;41.09;99838.38;5014341;27;45652;-71
2022/03/31 15:54:02;;;;;;;;;5.00;5.00;;;;;24.02;41.31;99834.63;5027485;27;45456;-71
2022/03/31 15:56:28;;;;;;;;;4.33;4.33;;;;;24.00;41.24;99836.69;5019923;27;45605;-71
2022/03/31 15:58:53;;;;;;;;;4.33;4.33;;;;;23.99;41.24;99840.44;5021327;28;46047;-71
2022/03/31 16:01:18;;;;;;;;;5.67;5.00;;;;;23.97;41.35;99840.63;5027209;27;45411;-71
2022/03/31 16:03:44;;;;;;;;;5.67;5.67;;;;;23.97;40.86;99840.63;5009265;28;45366;-71
2022/03/31 16:06:09;;;;;;;;;5.67;5.00;;;;;23.95;40.93;99843.53;5009894;28;45724;-70
2022/03/31 16:08:35;;;;;;;;;4.67;4.67;;;;;23.95;41.38;99840.00;5004765;28;46822;-69
2022/03/31 16:11:00;;;;;;;;;6.33;5.33;;;;;23.94;41.42;99841.88;5001536;28;45723;-69
2022/03/31 16:13:26;;;;;;;;;5.00;5.00;;;;;23.94;41.62;99835.59;5007699;27;45552;-71
2022/03/31 16:15:52;;;;;;;;;6.67;4.67;;;;;23.94;41.60;99843.72;5002963;28;45553;-70
2022/03/31 16:18:17;;;;;;;;;6.00;4.00;;;;;23.94;41.91;99851.84;5007580;28;46048;-70
2022/03/31 16:20:42;;;;;;;;;7.00;5.00;;;;;23.95;41.92;99851.66;4994976;28;45426;-70
2022/03/31 16:25:52;;;;;;;;;4.33;4.33;;;;;23.96;41.79;99855.22;5007977;28;45390;-69
2022/03/31 16:28:18;;;;;;;;;6.67;4.67;;;;;23.96;41.90;99847.09;5003619;28;46254;-70
2022/03/31 16:30:44;;;;;;;;;9.00;6.00;;;;;23.97;41.85;99840.63;4993680;28;45491;-70
2022/03/31 16:33:10;;;;;;;;;6.00;4.67;;;;;23.95;42.06;99835.41;5006041;28;45544;-70
2022/03/31 16:35:36;;;;;;;;;5.33;5.33;;;;;23.98;42.29;99842.31;5018064;28;45476;-70
2022/03/31 16:38:01;;;;;;;;;5.00;4.33;;;;;23.98;42.28;99842.31;4997386;28;46379;-71
2022/03/31 16:40:26;;;;;;;;;7.00;5.33;;;;;23.98;41.28;99836.06;5005243;28;45548;-71
2022/03/31 16:42:52;;;;;;;;;4.00;4.00;;;;;23.93;41.16;99840.19;5006162;28;45757;-71
2022/03/31 16:45:17;;;;;;;;;4.00;4.00;;;;;23.87;40.68;99838.22;4996526;27;45859;-72
2022/03/31 16:47:43;;;;;;;;;8.67;6.00;;;;;23.84;41.18;99835.06;5002327;28;45918;-68
2022/03/31 16:50:08;;;;;;;;;6.00;5.00;;;;;23.82;41.07;99830.69;4994527;28;45489;-68
2022/03/31 16:52:33;;;;;;;;;4.00;4.00;;;;;23.81;41.06;99828.16;4995858;28;45575;-68
2022/03/31 16:54:59;;;;;;;;;3.00;3.00;;;;;23.79;40.57;99836.50;4998445;28;48865;-69
2022/03/31 16:57:24;;;;;;;;;4.67;4.00;;;;;23.77;40.49;99837.72;5006621;28;46065;-69
2022/03/31 16:59:50;;;;;;;;;6.00;4.00;;;;;23.75;40.61;99823.53;4992773;27;45405;-68
2022/03/31 17:02:15;;;;;;;;;7.33;5.33;;;;;23.73;40.53;99826.44;5018361;28;45889;-69
2022/03/31 17:04:41;;;;;;;;;7.00;5.33;;;;;23.71;40.57;99833.91;5021540;27;45642;-68
2022/03/31 17:07:06;;;;;;;;;6.33;5.67;;;;;23.69;40.43;99844.09;5023230;27;45570;-68
2022/03/31 17:09:34;;;;;;;;;5.00;3.00;;;;;23.64;40.31;99828.44;5026490;27;45624;-68
2022/03/31 17:12:00;;;;;;;;;5.67;4.00;;;;;23.62;40.42;99825.06;5026440;27;45580;-71
2022/03/31 17:14:26;;;;;;;;;5.00;3.67;;;;;23.59;40.49;99825.47;5045604;27;45492;-71
2022/03/31 17:16:51;;;;;;;;;6.00;6.00;;;;;23.57;40.34;99837.50;5025865;28;46249;-70
2022/03/31 17:19:17;;;;;;;;;5.00;4.00;;;;;23.55;40.86;99843.94;5022093;27;45412;-70
2022/03/31 17:21:42;;;;;;;;;4.67;3.00;;;;;23.57;40.77;99837.50;5019358;27;46013;-71
2022/03/31 17:24:08;;;;;;;;;3.00;3.00;;;;;23.58;40.74;99841.91;5041394;27;45411;-71
2022/03/31 17:26:33;;;;;;;;;4.67;3.33;;;;;23.58;40.61;99850.84;5018155;27;45516;-71
2022/03/31 17:28:59;;;;;;;;;5.67;5.00;;;;;23.61;40.89;99846.91;5016936;28;45369;-71
2022/03/31 17:31:26;;;;;;;;;5.00;3.00;;;;;23.62;41.26;99865.69;5012886;27;45531;-71
2022/03/31 17:33:51;;;;;;;;;4.00;4.00;;;;;23.63;41.16;99870.06;5028395;27;45706;-71
2022/03/31 17:36:17;;;;;;;;;6.00;4.67;;;;;23.65;41.08;99872.59;5021053;27;46291;-72
2022/03/31 17:38:42;;;;;;;;;5.67;3.00;;;;;23.68;41.14;99881.19;5011498;27;45334;-70
2022/03/31 17:41:08;;;;;;;;;6.00;3.00;;;;;23.68;40.57;99883.91;5018253;28;45243;-71
2022/03/31 17:43:33;;;;;;;;;6.67;6.67;;;;;23.66;40.62;99877.81;5025743;27;45487;-70
2022/03/31 17:45:58;;;;;;;;;5.67;5.67;;;;;23.66;40.44;99893.22;5022235;27;53513;-70